createdAt,value
2023-03-10T00:00:00.640Z,11.93
2023-03-10T00:00:32.380Z,11.13
2023-03-10T00:01:10.134Z,11.10
2023-03-10T00:01:41.949Z,11.53
2023-03-10T00:02:13.654Z,11.43
2023-03-10T00:02:49.604Z,11.60
2023-03-10T00:03:21.501Z,10.33
2023-03-10T00:03:57.463Z,10.93
2023-03-10T00:04:29.277Z,11.37
2023-03-10T00:05:02.938Z,10.83
2023-03-10T00:05:35.021Z,10.77
2023-03-10T00:06:08.578Z,11.50
2023-03-10T00:06:40.414Z,10.90
2023-03-10T00:07:12.190Z,10.33
2023-03-10T00:07:44.849Z,10.83
2023-03-10T00:08:16.640Z,10.27
2023-03-10T00:08:48.574Z,10.57
2023-03-10T00:09:20.365Z,11.43
2023-03-10T00:09:52.209Z,11.23
2023-03-10T00:10:24.039Z,10.80
2023-03-10T00:10:55.782Z,10.87
2023-03-10T00:11:28.067Z,11.03
2023-03-10T00:11:59.821Z,10.87
2023-03-10T00:12:31.565Z,10.20
2023-03-10T00:13:03.362Z,10.13
2023-03-10T00:13:35.328Z,10.17
2023-03-10T00:14:07.110Z,9.77
2023-03-10T00:14:39.301Z,9.87
2023-03-10T00:15:12.633Z,10.37
2023-03-10T00:15:44.438Z,9.97
2023-03-10T00:16:25.357Z,9.77
2023-03-10T00:16:57.064Z,9.43
2023-03-10T00:17:29.554Z,9.60
2023-03-10T00:18:01.282Z,8.63
2023-03-10T00:18:33.185Z,9.50
2023-03-10T00:19:05.178Z,8.90
2023-03-10T00:19:37.017Z,9.27
2023-03-10T00:20:12.050Z,8.73
2023-03-10T00:20:43.873Z,8.87
2023-03-10T00:21:18.880Z,8.80
2023-03-10T00:21:50.653Z,8.87
2023-03-10T00:22:22.524Z,9.50
2023-03-10T00:22:54.334Z,9.43
2023-03-10T00:23:26.297Z,9.40
2023-03-10T00:23:59.187Z,9.80
2023-03-10T00:24:30.983Z,9.23
2023-03-10T00:25:03.299Z,9.37
2023-03-10T00:25:35.138Z,9.53
2023-03-10T00:26:06.944Z,9.03
2023-03-10T00:26:38.732Z,9.63
2023-03-10T00:27:10.545Z,10.07
2023-03-10T00:27:42.289Z,9.83
2023-03-10T00:28:14.097Z,10.53
2023-03-10T00:28:46.528Z,10.20
2023-03-10T00:29:18.930Z,9.90
2023-03-10T00:29:53.313Z,9.93
2023-03-10T00:30:25.223Z,9.87
2023-03-10T00:30:59.077Z,10.30
2023-03-10T00:31:31.665Z,10.23
2023-03-10T00:32:03.669Z,11.30
2023-03-10T00:32:36.300Z,11.00
2023-03-10T00:33:08.164Z,10.93
2023-03-10T00:33:40.066Z,10.63
2023-03-10T00:34:12.747Z,10.83
2023-03-10T00:34:44.543Z,11.60
2023-03-10T00:35:17.069Z,11.23
2023-03-10T00:35:49.050Z,11.03
2023-03-10T00:36:23.776Z,11.87
2023-03-10T00:36:55.525Z,11.67
2023-03-10T00:37:27.298Z,11.73
2023-03-10T00:37:59.085Z,11.97
2023-03-10T00:38:30.834Z,13.37
2023-03-10T00:39:02.717Z,12.80
2023-03-10T00:39:34.492Z,13.00
2023-03-10T00:40:11.012Z,12.40
2023-03-10T00:40:42.746Z,12.37
2023-03-10T00:41:18.214Z,11.97
2023-03-10T00:41:50.288Z,11.27
2023-03-10T00:42:22.146Z,11.50
2023-03-10T00:42:53.938Z,11.33
2023-03-10T00:43:25.855Z,10.47
2023-03-10T00:43:58.581Z,10.27
2023-03-10T00:44:30.356Z,10.57
2023-03-10T00:45:02.316Z,10.87
2023-03-10T00:45:36.093Z,9.90
2023-03-10T00:46:08.460Z,9.37
2023-03-10T00:46:40.822Z,10.17
2023-03-10T00:47:12.699Z,10.73
2023-03-10T00:47:44.544Z,10.67
2023-03-10T00:48:16.358Z,9.73
2023-03-10T00:48:48.100Z,9.53
2023-03-10T00:49:19.822Z,9.37
2023-03-10T00:49:51.566Z,8.90
2023-03-10T00:50:23.342Z,8.60
2023-03-10T00:50:55.103Z,8.60
2023-03-10T00:51:26.892Z,8.97
2023-03-10T00:51:58.791Z,8.83
2023-03-10T00:52:34.060Z,8.63
2023-03-10T00:53:05.816Z,8.40
2023-03-10T00:53:40.149Z,9.40
2023-03-10T00:54:12.000Z,8.83
2023-03-10T00:54:43.804Z,8.57
2023-03-10T00:55:15.621Z,8.70
2023-03-10T00:56:08.067Z,8.47
2023-03-10T00:56:39.926Z,8.30
2023-03-10T00:57:11.723Z,8.20
2023-03-10T00:57:43.590Z,8.77
2023-03-10T00:58:15.314Z,8.83
2023-03-10T00:58:50.473Z,9.27
2023-03-10T00:59:22.265Z,9.33
2023-03-10T00:59:54.027Z,8.93
2023-03-10T01:00:25.994Z,8.77
2023-03-10T01:00:58.806Z,9.00
2023-03-10T01:01:34.332Z,9.07
2023-03-10T01:02:06.362Z,9.27
2023-03-10T01:02:40.935Z,9.33
2023-03-10T01:03:12.695Z,8.93
2023-03-10T01:03:45.310Z,8.73
2023-03-10T01:04:19.288Z,9.07
2023-03-10T01:04:51.159Z,9.30
2023-03-10T01:05:23.069Z,9.30
2023-03-10T01:05:55.774Z,9.27
2023-03-10T01:06:28.028Z,9.73
2023-03-10T01:06:59.914Z,9.73
2023-03-10T01:07:31.665Z,9.93
2023-03-10T01:08:03.493Z,9.53
2023-03-10T01:08:35.821Z,9.00
2023-03-10T01:09:07.987Z,9.07
2023-03-10T01:09:39.749Z,9.17
2023-03-10T01:10:12.188Z,9.30
2023-03-10T01:10:44.135Z,8.83
2023-03-10T01:11:23.215Z,8.83
2023-03-10T01:11:54.994Z,9.27
2023-03-10T01:12:26.814Z,8.57
2023-03-10T01:12:58.584Z,8.33
2023-03-10T01:13:30.450Z,8.37
2023-03-10T01:14:05.080Z,8.47
2023-03-10T01:14:37.204Z,8.43
2023-03-10T01:15:09.324Z,8.47
2023-03-10T01:15:41.947Z,7.97
2023-03-10T01:16:13.852Z,8.57
2023-03-10T01:16:45.647Z,8.40
2023-03-10T01:17:17.365Z,8.00
2023-03-10T01:17:49.227Z,7.90
2023-03-10T01:18:21.525Z,8.37
2023-03-10T01:18:53.470Z,8.37
2023-03-10T01:19:25.418Z,8.73
2023-03-10T01:19:57.460Z,9.43
2023-03-10T01:20:30.835Z,9.50
2023-03-10T01:21:02.675Z,8.93
2023-03-10T01:21:37.123Z,9.47
2023-03-10T01:22:08.933Z,9.30
2023-03-10T01:22:41.433Z,9.27
2023-03-10T01:23:15.560Z,9.23
2023-03-10T01:23:47.354Z,8.67
2023-03-10T01:24:19.453Z,8.57
2023-03-10T01:24:51.357Z,8.97
2023-03-10T01:25:23.390Z,9.10
2023-03-10T01:25:55.564Z,9.27
2023-03-10T01:26:28.211Z,9.50
2023-03-10T01:26:59.952Z,9.83
2023-03-10T01:27:31.780Z,9.30
2023-03-10T01:28:03.704Z,9.53
2023-03-10T01:28:35.601Z,9.43
2023-03-10T01:29:07.370Z,8.33
2023-03-10T01:29:39.157Z,8.93
2023-03-10T01:30:11.921Z,8.70
2023-03-10T01:30:44.270Z,9.47
2023-03-10T01:31:17.687Z,9.23
2023-03-10T01:31:49.548Z,9.00
2023-03-10T01:32:21.399Z,9.27
2023-03-10T01:32:53.234Z,8.97
2023-03-10T01:33:25.037Z,8.63
2023-03-10T01:33:56.835Z,9.00
2023-03-10T01:34:28.606Z,8.90
2023-03-10T01:35:00.393Z,8.70
2023-03-10T01:35:32.261Z,8.50
2023-03-10T01:36:11.174Z,8.80
2023-03-10T01:36:43.105Z,8.87
2023-03-10T01:37:14.885Z,9.10
2023-03-10T01:37:46.642Z,8.90
2023-03-10T01:38:18.346Z,9.40
2023-03-10T01:38:50.643Z,9.00
2023-03-10T01:39:22.495Z,9.07
2023-03-10T01:39:54.259Z,9.23
2023-03-10T01:40:27.594Z,8.73
2023-03-10T01:40:59.354Z,8.27
2023-03-10T01:41:31.114Z,8.37
2023-03-10T01:42:02.989Z,8.93
2023-03-10T01:42:34.829Z,8.57
2023-03-10T01:43:24.617Z,8.50
2023-03-10T01:43:57.542Z,8.17
2023-03-10T01:44:29.393Z,8.07
2023-03-10T01:45:15.157Z,8.00
2023-03-10T01:45:46.838Z,9.00
2023-03-10T01:46:24.802Z,9.10
2023-03-10T01:46:59.253Z,8.33
2023-03-10T01:47:31.210Z,8.70
2023-03-10T01:48:02.973Z,8.33
2023-03-10T01:48:36.686Z,8.23
2023-03-10T01:49:31.760Z,8.93
2023-03-10T01:50:06.776Z,8.33
2023-03-10T01:50:39.730Z,8.57
2023-03-10T01:51:11.767Z,8.07
2023-03-10T01:51:48.757Z,8.33
2023-03-10T01:52:24.770Z,8.37
2023-03-10T01:52:58.560Z,9.27
2023-03-10T01:53:30.829Z,8.87
2023-03-10T01:54:07.310Z,8.40
2023-03-10T01:54:50.031Z,9.03
2023-03-10T01:55:46.637Z,7.83
2023-03-10T01:56:18.628Z,8.80
2023-03-10T01:56:53.149Z,9.07
2023-03-10T01:57:31.444Z,8.77
2023-03-10T01:58:07.021Z,8.30
2023-03-10T01:58:44.505Z,8.40
2023-03-10T01:59:16.949Z,8.53
2023-03-10T01:59:50.662Z,8.70
2023-03-10T02:00:24.902Z,8.80
2023-03-10T02:00:56.662Z,8.27
2023-03-10T02:01:29.653Z,8.70
2023-03-10T02:02:02.330Z,8.30
2023-03-10T02:02:37.864Z,8.50
2023-03-10T02:03:28.412Z,8.20
2023-03-10T02:04:25.012Z,7.60
2023-03-10T02:04:58.453Z,8.40
2023-03-10T02:05:32.330Z,8.67
2023-03-10T02:06:08.665Z,8.77
2023-03-10T02:06:42.041Z,8.17
2023-03-10T02:07:17.163Z,8.53
2023-03-10T02:07:50.008Z,7.93
2023-03-10T02:08:24.801Z,8.23
2023-03-10T02:09:04.106Z,8.53
2023-03-10T02:09:40.985Z,8.70
2023-03-10T02:10:15.979Z,8.57
2023-03-10T02:10:49.715Z,8.23
2023-03-10T02:11:22.277Z,8.17
2023-03-10T02:11:55.323Z,8.17
2023-03-10T02:12:27.256Z,8.20
2023-03-10T02:12:59.067Z,8.87
2023-03-10T02:13:30.946Z,9.00
2023-03-10T02:14:06.313Z,8.70
2023-03-10T02:14:39.150Z,8.33
2023-03-10T02:15:12.650Z,8.60
2023-03-10T02:15:46.060Z,8.90
2023-03-10T02:16:18.613Z,8.20
2023-03-10T02:16:50.494Z,8.17
2023-03-10T02:17:25.085Z,8.63
2023-03-10T02:17:57.141Z,8.40
2023-03-10T02:18:31.704Z,8.10
2023-03-10T02:19:12.043Z,8.43
2023-03-10T02:20:02.569Z,7.93
2023-03-10T02:20:34.302Z,8.07
2023-03-10T02:21:24.343Z,8.30
2023-03-10T02:22:08.910Z,8.47
2023-03-10T02:22:40.850Z,8.33
2023-03-10T02:23:23.538Z,8.50
2023-03-10T02:24:01.275Z,7.77
2023-03-10T02:24:44.969Z,7.80
2023-03-10T02:25:41.845Z,8.37
2023-03-10T02:26:24.194Z,8.50
2023-03-10T02:27:29.972Z,8.30
2023-03-10T02:28:02.095Z,8.50
2023-03-10T02:28:33.934Z,8.10
2023-03-10T02:29:09.986Z,8.37
2023-03-10T02:29:58.922Z,8.20
2023-03-10T02:30:37.232Z,8.33
2023-03-10T02:31:10.476Z,8.53
2023-03-10T02:31:44.523Z,8.07
2023-03-10T02:32:17.901Z,8.30
2023-03-10T02:32:55.718Z,8.40
2023-03-10T02:33:32.523Z,8.13
2023-03-10T02:34:06.772Z,8.90
2023-03-10T02:34:38.581Z,8.10
2023-03-10T02:35:10.622Z,8.33
2023-03-10T02:35:42.401Z,8.37
2023-03-10T02:36:16.645Z,8.47
2023-03-10T02:36:48.496Z,7.50
2023-03-10T02:37:24.026Z,7.83
2023-03-10T02:37:55.933Z,8.50
2023-03-10T02:38:27.721Z,8.07
2023-03-10T02:38:59.586Z,8.73
2023-03-10T02:39:31.413Z,8.13
2023-03-10T02:40:22.657Z,8.27
2023-03-10T02:40:55.863Z,8.33
2023-03-10T02:41:32.664Z,7.97
2023-03-10T02:42:04.587Z,7.30
2023-03-10T02:42:37.064Z,7.57
2023-03-10T02:43:22.417Z,8.03
2023-03-10T02:43:57.656Z,7.60
2023-03-10T02:44:29.398Z,7.40
2023-03-10T02:45:03.401Z,8.20
2023-03-10T02:45:39.788Z,7.90
2023-03-10T02:46:11.993Z,7.40
2023-03-10T02:46:43.923Z,8.10
2023-03-10T02:47:16.473Z,8.20
2023-03-10T02:47:48.260Z,7.97
2023-03-10T02:48:31.321Z,8.23
2023-03-10T02:49:06.242Z,8.70
2023-03-10T02:49:39.741Z,8.53
2023-03-10T02:50:16.361Z,8.83
2023-03-10T02:50:48.545Z,8.17
2023-03-10T02:51:26.253Z,9.20
2023-03-10T02:52:00.638Z,9.50
2023-03-10T02:52:43.454Z,9.53
2023-03-10T02:53:21.948Z,9.43
2023-03-10T02:53:53.726Z,9.00
2023-03-10T02:54:25.579Z,9.67
2023-03-10T02:54:57.692Z,9.53
2023-03-10T02:55:29.476Z,9.43
2023-03-10T02:56:01.623Z,9.33
2023-03-10T02:56:34.424Z,9.40
2023-03-10T02:57:06.295Z,9.03
2023-03-10T02:57:45.545Z,9.03
2023-03-10T02:58:18.007Z,8.80
2023-03-10T02:58:49.803Z,9.17
2023-03-10T02:59:21.657Z,9.57
2023-03-10T02:59:53.394Z,9.43
2023-03-10T03:00:25.122Z,8.73
2023-03-10T03:00:57.951Z,9.67
2023-03-10T03:01:32.632Z,8.90
2023-03-10T03:02:04.466Z,9.07
2023-03-10T03:02:36.174Z,8.10
2023-03-10T03:03:09.462Z,8.40
2023-03-10T03:03:41.554Z,8.33
2023-03-10T03:04:13.824Z,8.10
2023-03-10T03:04:45.616Z,8.60
2023-03-10T03:05:17.352Z,8.60
2023-03-10T03:05:49.866Z,8.53
2023-03-10T03:06:21.959Z,8.70
2023-03-10T03:06:53.768Z,8.87
2023-03-10T03:07:25.564Z,8.33
2023-03-10T03:07:57.405Z,7.83
2023-03-10T03:08:29.449Z,8.23
2023-03-10T03:09:01.236Z,8.23
2023-03-10T03:09:33.156Z,8.50
2023-03-10T03:10:05.744Z,8.27
2023-03-10T03:10:38.800Z,8.43
2023-03-10T03:11:11.012Z,9.37
2023-03-10T03:11:42.826Z,8.93
2023-03-10T03:12:14.633Z,8.83
2023-03-10T03:12:46.449Z,9.10
2023-03-10T03:13:18.382Z,9.27
2023-03-10T03:13:50.588Z,9.30
2023-03-10T03:14:22.522Z,9.37
2023-03-10T03:14:54.320Z,8.37
2023-03-10T03:15:26.548Z,9.57
2023-03-10T03:15:58.306Z,9.23
2023-03-10T03:16:30.145Z,9.37
2023-03-10T03:17:01.960Z,9.00
2023-03-10T03:17:34.893Z,8.40
2023-03-10T03:18:06.823Z,8.43
2023-03-10T03:18:38.638Z,8.27
2023-03-10T03:19:11.118Z,7.97
2023-03-10T03:19:42.913Z,8.70
2023-03-10T03:20:15.496Z,8.67
2023-03-10T03:20:47.595Z,9.27
2023-03-10T03:21:19.440Z,9.23
2023-03-10T03:21:51.135Z,9.40
2023-03-10T03:22:23.152Z,8.97
2023-03-10T03:22:56.256Z,8.57
2023-03-10T03:23:28.049Z,8.57
2023-03-10T03:23:59.920Z,8.03
2023-03-10T03:24:32.607Z,8.67
2023-03-10T03:25:04.521Z,8.20
2023-03-10T03:25:40.143Z,8.30
2023-03-10T03:26:24.705Z,8.30
2023-03-10T03:26:56.457Z,8.23
2023-03-10T03:27:28.237Z,7.80
2023-03-10T03:28:00.031Z,7.57
2023-03-10T03:28:31.817Z,7.70
2023-03-10T03:29:03.641Z,7.33
2023-03-10T03:29:35.465Z,8.03
2023-03-10T03:30:13.629Z,7.30
2023-03-10T03:30:46.404Z,7.53
2023-03-10T03:31:21.480Z,8.33
2023-03-10T03:31:53.473Z,8.93
2023-03-10T03:32:25.288Z,9.00
2023-03-10T03:32:57.317Z,9.23
2023-03-10T03:33:29.070Z,10.07
2023-03-10T03:34:00.774Z,9.90
2023-03-10T03:34:32.620Z,10.03
2023-03-10T03:35:08.938Z,10.13
2023-03-10T03:35:40.807Z,11.07
2023-03-10T03:36:13.440Z,10.17
2023-03-10T03:36:45.481Z,10.53
2023-03-10T03:37:17.328Z,11.03
2023-03-10T03:37:49.177Z,9.97
2023-03-10T03:38:21.026Z,10.47
2023-03-10T03:38:52.792Z,10.53
2023-03-10T03:39:24.655Z,10.73
2023-03-10T03:39:56.802Z,10.43
2023-03-10T03:40:33.587Z,10.27
2023-03-10T03:41:06.463Z,10.43
2023-03-10T03:41:38.238Z,9.30
2023-03-10T03:42:10.115Z,8.87
2023-03-10T03:42:44.219Z,9.07
2023-03-10T03:43:16.132Z,9.03
2023-03-10T03:43:47.930Z,8.40
2023-03-10T03:44:20.068Z,9.80
2023-03-10T03:44:51.891Z,9.33
2023-03-10T03:45:26.418Z,9.70
2023-03-10T03:45:58.397Z,8.97
2023-03-10T03:46:30.340Z,8.80
2023-03-10T03:47:02.167Z,9.13
2023-03-10T03:47:33.992Z,8.70
2023-03-10T03:48:05.944Z,8.00
2023-03-10T03:48:38.418Z,7.93
2023-03-10T03:49:10.741Z,8.90
2023-03-10T03:49:42.580Z,9.03
2023-03-10T03:50:16.742Z,8.43
2023-03-10T03:50:49.434Z,8.17
2023-03-10T03:51:21.225Z,7.97
2023-03-10T03:51:53.046Z,7.33
2023-03-10T03:52:24.788Z,7.97
2023-03-10T03:52:57.108Z,7.70
2023-03-10T03:53:28.850Z,7.47
2023-03-10T03:54:00.651Z,8.33
2023-03-10T03:54:33.294Z,9.07
2023-03-10T03:55:06.181Z,8.33
2023-03-10T03:55:38.001Z,8.37
2023-03-10T03:56:10.021Z,8.17
2023-03-10T03:56:41.808Z,8.13
2023-03-10T03:57:13.566Z,7.97
2023-03-10T03:57:46.051Z,7.97
2023-03-10T03:58:17.798Z,8.17
2023-03-10T03:58:49.551Z,8.70
2023-03-10T03:59:21.369Z,7.97
2023-03-10T03:59:53.703Z,7.73
2023-03-10T04:00:25.955Z,7.57
2023-03-10T04:00:57.924Z,7.50
2023-03-10T04:01:29.798Z,8.10
2023-03-10T04:02:01.577Z,8.10
2023-03-10T04:02:33.789Z,8.50
2023-03-10T04:03:05.916Z,8.47
2023-03-10T04:03:37.749Z,8.70
2023-03-10T04:04:09.796Z,8.53
2023-03-10T04:04:41.806Z,9.57
2023-03-10T04:05:13.613Z,9.53
2023-03-10T04:05:45.516Z,10.87
2023-03-10T04:06:17.250Z,9.20
2023-03-10T04:06:48.990Z,10.00
2023-03-10T04:07:20.787Z,10.73
2023-03-10T04:07:52.754Z,11.10
2023-03-10T04:08:24.522Z,11.63
2023-03-10T04:08:56.295Z,10.80
2023-03-10T04:09:29.357Z,9.73
2023-03-10T04:10:01.289Z,9.10
2023-03-10T04:10:33.108Z,10.33
2023-03-10T04:11:05.201Z,10.20
2023-03-10T04:11:37.241Z,9.80
2023-03-10T04:12:10.444Z,8.80
2023-03-10T04:12:42.241Z,9.20
2023-03-10T04:13:14.081Z,8.43
2023-03-10T04:13:45.915Z,8.97
2023-03-10T04:14:17.701Z,8.67
2023-03-10T04:14:49.509Z,8.73
2023-03-10T04:15:21.561Z,9.30
2023-03-10T04:15:58.087Z,9.13
2023-03-10T04:16:29.909Z,7.93
2023-03-10T04:17:01.728Z,8.43
2023-03-10T04:17:33.488Z,8.90
2023-03-10T04:18:05.297Z,8.77
2023-03-10T04:18:37.473Z,9.43
2023-03-10T04:19:09.266Z,9.53
2023-03-10T04:19:41.015Z,9.87
2023-03-10T04:20:14.418Z,9.50
2023-03-10T04:20:46.188Z,9.77
2023-03-10T04:21:17.992Z,10.00
2023-03-10T04:21:49.754Z,9.73
2023-03-10T04:22:21.548Z,10.00
2023-03-10T04:22:53.518Z,10.03
2023-03-10T04:23:25.325Z,10.63
2023-03-10T04:23:57.079Z,10.87
2023-03-10T04:24:28.918Z,11.80
2023-03-10T04:25:00.624Z,11.90
2023-03-10T04:25:33.153Z,12.50
2023-03-10T04:26:10.953Z,12.20
2023-03-10T04:26:43.661Z,12.50
2023-03-10T04:27:15.698Z,10.90
2023-03-10T04:27:47.461Z,11.23
2023-03-10T04:28:19.379Z,10.07
2023-03-10T04:28:51.180Z,10.20
2023-03-10T04:29:24.598Z,10.27
2023-03-10T04:29:57.074Z,10.00
2023-03-10T04:30:29.525Z,10.27
2023-03-10T04:31:01.528Z,9.53
2023-03-10T04:31:33.463Z,8.87
2023-03-10T04:32:06.097Z,9.23
2023-03-10T04:32:38.056Z,9.60
2023-03-10T04:33:11.336Z,10.00
2023-03-10T04:33:43.320Z,9.73
2023-03-10T04:34:15.030Z,9.93
2023-03-10T04:34:46.927Z,9.93
2023-03-10T04:35:18.778Z,9.43
2023-03-10T04:35:51.659Z,8.97
2023-03-10T04:36:23.508Z,8.43
2023-03-10T04:36:55.312Z,8.90
2023-03-10T04:37:27.352Z,9.63
2023-03-10T04:37:59.082Z,9.63
2023-03-10T04:38:31.879Z,9.40
2023-03-10T04:39:05.157Z,9.07
2023-03-10T04:39:37.556Z,8.97
2023-03-10T04:40:13.364Z,8.93
2023-03-10T04:40:45.375Z,8.83
2023-03-10T04:41:17.802Z,8.67
2023-03-10T04:41:49.846Z,8.57
2023-03-10T04:42:21.681Z,8.23
2023-03-10T04:42:53.497Z,8.90
2023-03-10T04:43:26.041Z,9.17
2023-03-10T04:43:57.875Z,8.63
2023-03-10T04:44:31.323Z,8.93
2023-03-10T04:45:03.844Z,8.67
2023-03-10T04:45:35.588Z,8.47
2023-03-10T04:46:07.535Z,9.00
2023-03-10T04:46:39.853Z,9.00
2023-03-10T04:47:11.675Z,8.33
2023-03-10T04:47:43.421Z,8.50
2023-03-10T04:48:15.222Z,8.27
2023-03-10T04:48:47.855Z,8.33
2023-03-10T04:49:19.581Z,8.70
2023-03-10T04:49:51.447Z,9.07
2023-03-10T04:50:23.219Z,9.23
2023-03-10T04:51:04.092Z,9.50
2023-03-10T04:51:35.924Z,9.17
2023-03-10T04:52:07.784Z,9.77
2023-03-10T04:52:39.630Z,10.37
2023-03-10T04:53:11.504Z,10.40
2023-03-10T04:53:43.329Z,10.40
2023-03-10T04:54:15.174Z,10.77
2023-03-10T04:54:46.918Z,10.27
2023-03-10T04:55:18.857Z,11.03
2023-03-10T04:55:51.664Z,11.27
2023-03-10T04:56:25.253Z,12.23
2023-03-10T04:56:57.057Z,11.30
2023-03-10T04:57:28.828Z,12.80
2023-03-10T04:58:01.270Z,12.33
2023-03-10T04:58:33.990Z,13.30
2023-03-10T04:59:05.846Z,13.63
2023-03-10T04:59:37.958Z,14.47
2023-03-10T05:00:12.885Z,15.00
2023-03-10T05:01:01.954Z,15.77
2023-03-10T05:01:35.509Z,16.07
2023-03-10T05:02:07.495Z,15.83
2023-03-10T05:02:40.464Z,15.50
2023-03-10T05:03:12.253Z,13.90
2023-03-10T05:03:44.446Z,13.37
2023-03-10T05:04:16.243Z,13.00
2023-03-10T05:04:48.029Z,13.57
2023-03-10T05:05:19.811Z,12.97
2023-03-10T05:05:51.687Z,13.27
2023-03-10T05:06:23.438Z,12.80
2023-03-10T05:06:55.256Z,12.83
2023-03-10T05:07:27.446Z,12.23
2023-03-10T05:08:00.475Z,12.57
2023-03-10T05:08:32.240Z,12.93
2023-03-10T05:09:05.050Z,12.70
2023-03-10T05:09:38.007Z,13.00
2023-03-10T05:10:10.832Z,14.13
2023-03-10T05:10:47.670Z,14.57
2023-03-10T05:11:19.715Z,15.23
2023-03-10T05:11:51.474Z,16.40
2023-03-10T05:12:23.244Z,17.47
2023-03-10T05:12:55.014Z,18.07
2023-03-10T05:13:29.545Z,17.63
2023-03-10T05:14:03.462Z,16.70
2023-03-10T05:14:36.396Z,16.87
2023-03-10T05:15:08.796Z,17.50
2023-03-10T05:15:41.896Z,17.60
2023-03-10T05:16:20.170Z,18.50
2023-03-10T05:16:52.010Z,18.73
2023-03-10T05:17:23.889Z,18.90
2023-03-10T05:17:55.672Z,18.40
2023-03-10T05:18:27.425Z,18.97
2023-03-10T05:18:59.285Z,18.27
2023-03-10T05:19:31.080Z,17.90
2023-03-10T05:20:02.881Z,16.40
2023-03-10T05:20:35.463Z,15.93
2023-03-10T05:21:07.363Z,15.50
2023-03-10T05:21:39.148Z,15.00
2023-03-10T05:22:12.679Z,15.60
2023-03-10T05:22:44.560Z,15.40
2023-03-10T05:23:16.326Z,15.57
2023-03-10T05:23:48.808Z,15.30
2023-03-10T05:24:20.723Z,13.97
2023-03-10T05:24:52.512Z,12.73
2023-03-10T05:25:24.412Z,13.90
2023-03-10T05:25:56.408Z,13.00
2023-03-10T05:26:28.284Z,12.57
2023-03-10T05:27:02.666Z,13.47
2023-03-10T05:27:36.649Z,12.40
2023-03-10T05:28:08.436Z,12.37
2023-03-10T05:28:40.225Z,12.03
2023-03-10T05:29:12.008Z,11.10
2023-03-10T05:29:43.876Z,10.97
2023-03-10T05:30:17.829Z,9.83
2023-03-10T05:30:50.138Z,10.33
2023-03-10T05:31:26.325Z,10.53
2023-03-10T05:31:58.317Z,10.47
2023-03-10T05:32:30.149Z,11.13
2023-03-10T05:33:02.660Z,12.57
2023-03-10T05:33:34.375Z,12.57
2023-03-10T05:34:06.115Z,12.43
2023-03-10T05:34:38.018Z,13.77
2023-03-10T05:35:10.291Z,13.30
2023-03-10T05:35:42.071Z,12.07
2023-03-10T05:36:14.961Z,12.80
2023-03-10T05:36:46.982Z,13.03
2023-03-10T05:37:19.172Z,14.80
2023-03-10T05:37:51.225Z,14.73
2023-03-10T05:38:23.279Z,14.97
2023-03-10T05:38:55.092Z,15.13
2023-03-10T05:39:26.876Z,15.60
2023-03-10T05:39:59.435Z,16.20
2023-03-10T05:40:31.350Z,17.03
2023-03-10T05:41:07.358Z,16.37
2023-03-10T05:41:39.338Z,13.13
2023-03-10T05:42:15.163Z,13.43
2023-03-10T05:42:47.842Z,13.43
2023-03-10T05:43:19.623Z,15.17
2023-03-10T05:43:51.450Z,15.30
2023-03-10T05:44:23.389Z,16.43
2023-03-10T05:44:55.165Z,15.77
2023-03-10T05:45:26.936Z,14.20
2023-03-10T05:45:59.899Z,13.40
2023-03-10T05:46:31.702Z,12.93
2023-03-10T05:47:03.525Z,11.77
2023-03-10T05:47:35.537Z,11.63
2023-03-10T05:48:07.582Z,12.97
2023-03-10T05:48:39.533Z,13.23
2023-03-10T05:49:11.337Z,13.27
2023-03-10T05:49:43.035Z,15.17
2023-03-10T05:50:15.656Z,14.30
2023-03-10T05:50:57.286Z,14.20
2023-03-10T05:51:29.306Z,12.50
2023-03-10T05:52:01.123Z,11.20
2023-03-10T05:52:37.562Z,11.63
2023-03-10T05:53:09.308Z,12.43
2023-03-10T05:53:45.170Z,12.87
2023-03-10T05:54:16.973Z,15.57
2023-03-10T05:54:48.715Z,17.67
2023-03-10T05:55:21.363Z,18.90
2023-03-10T05:55:54.373Z,19.23
2023-03-10T05:56:26.169Z,18.33
2023-03-10T05:56:58.277Z,26.40
2023-03-10T05:57:30.044Z,32.53
2023-03-10T05:58:01.896Z,30.70
2023-03-10T05:58:33.932Z,29.73
2023-03-10T05:59:06.949Z,29.63
2023-03-10T05:59:38.655Z,28.43
2023-03-10T06:00:13.785Z,29.67
2023-03-10T06:00:46.031Z,26.53
2023-03-10T06:01:19.594Z,20.03
2023-03-10T06:01:51.469Z,18.63
2023-03-10T06:02:23.229Z,16.57
2023-03-10T06:02:55.515Z,14.33
2023-03-10T06:03:29.082Z,15.30
2023-03-10T06:04:01.126Z,14.93
2023-03-10T06:04:33.427Z,15.30
2023-03-10T06:05:12.051Z,14.67
2023-03-10T06:05:43.976Z,14.20
2023-03-10T06:06:15.743Z,13.53
2023-03-10T06:06:47.468Z,12.07
2023-03-10T06:07:19.209Z,10.90
2023-03-10T06:07:51.266Z,11.43
2023-03-10T06:08:23.779Z,11.37
2023-03-10T06:08:55.706Z,10.77
2023-03-10T06:09:29.015Z,10.77
2023-03-10T06:10:00.921Z,11.27
2023-03-10T06:10:32.771Z,10.57
2023-03-10T06:11:06.044Z,10.10
2023-03-10T06:11:37.902Z,12.33
2023-03-10T06:12:10.262Z,12.43
2023-03-10T06:12:42.333Z,12.70
2023-03-10T06:13:14.243Z,12.03
2023-03-10T06:13:46.087Z,11.47
2023-03-10T06:14:17.884Z,11.37
2023-03-10T06:14:49.625Z,11.23
2023-03-10T06:15:23.113Z,11.83
2023-03-10T06:15:57.861Z,12.10
2023-03-10T06:16:30.120Z,10.77
2023-03-10T06:17:01.997Z,11.97
2023-03-10T06:17:34.035Z,12.40
2023-03-10T06:18:05.951Z,11.77
2023-03-10T06:18:37.951Z,12.07
2023-03-10T06:19:10.866Z,10.73
2023-03-10T06:19:42.909Z,10.03
2023-03-10T06:20:15.830Z,10.03
2023-03-10T06:20:50.051Z,9.63
2023-03-10T06:21:25.938Z,10.43
2023-03-10T06:22:02.573Z,10.77
2023-03-10T06:22:34.411Z,10.77
2023-03-10T06:23:06.585Z,10.00
2023-03-10T06:23:38.893Z,10.07
2023-03-10T06:24:10.739Z,11.20
2023-03-10T06:24:45.436Z,11.60
2023-03-10T06:25:17.290Z,11.50
2023-03-10T06:26:06.089Z,11.27
2023-03-10T06:26:38.235Z,11.13
2023-03-10T06:27:10.082Z,11.27
2023-03-10T06:27:41.984Z,11.30
2023-03-10T06:28:13.900Z,11.87
2023-03-10T06:28:47.036Z,11.67
2023-03-10T06:29:18.803Z,12.50
2023-03-10T06:29:50.613Z,13.20
2023-03-10T06:30:22.718Z,13.77
2023-03-10T06:30:57.817Z,13.37
2023-03-10T06:31:30.512Z,13.60
2023-03-10T06:32:02.353Z,14.40
2023-03-10T06:32:35.170Z,14.50
2023-03-10T06:33:07.006Z,14.40
2023-03-10T06:33:38.857Z,13.93
2023-03-10T06:34:10.635Z,13.70
2023-03-10T06:34:42.417Z,14.60
2023-03-10T06:35:15.852Z,14.30
2023-03-10T06:35:47.666Z,13.83
2023-03-10T06:36:20.848Z,13.27
2023-03-10T06:36:52.708Z,13.30
2023-03-10T06:37:24.709Z,13.97
2023-03-10T06:37:56.508Z,13.03
2023-03-10T06:38:28.700Z,12.70
2023-03-10T06:39:00.463Z,13.23
2023-03-10T06:39:32.325Z,14.47
2023-03-10T06:40:04.733Z,14.77
2023-03-10T06:40:36.489Z,13.80
2023-03-10T06:41:09.031Z,13.33
2023-03-10T06:41:40.776Z,13.33
2023-03-10T06:42:12.552Z,13.70
2023-03-10T06:42:44.459Z,13.73
2023-03-10T06:43:16.343Z,13.97
2023-03-10T06:43:48.438Z,14.10
2023-03-10T06:44:20.214Z,14.63
2023-03-10T06:44:55.030Z,14.90
2023-03-10T06:45:26.772Z,15.97
2023-03-10T06:45:58.729Z,15.07
2023-03-10T06:46:30.809Z,15.80
2023-03-10T06:47:05.629Z,15.63
2023-03-10T06:47:37.456Z,14.90
2023-03-10T06:48:10.079Z,14.53
2023-03-10T06:48:42.972Z,14.93
2023-03-10T06:49:14.896Z,14.37
2023-03-10T06:49:46.681Z,14.87
2023-03-10T06:50:18.536Z,15.37
2023-03-10T06:50:50.560Z,15.53
2023-03-10T06:51:23.352Z,16.00
2023-03-10T06:51:55.130Z,16.83
2023-03-10T06:52:27.024Z,17.10
2023-03-10T06:52:58.956Z,16.67
2023-03-10T06:53:30.750Z,15.57
2023-03-10T06:54:02.666Z,15.10
2023-03-10T06:54:34.769Z,15.37
2023-03-10T06:55:07.010Z,15.87
2023-03-10T06:55:38.807Z,15.03
2023-03-10T06:56:21.349Z,15.87
2023-03-10T06:56:53.498Z,15.40
2023-03-10T06:57:25.449Z,15.37
2023-03-10T06:57:58.086Z,15.30
2023-03-10T06:58:31.075Z,14.43
2023-03-10T06:59:03.060Z,14.67
2023-03-10T06:59:34.841Z,15.37
2023-03-10T07:00:11.488Z,16.43
2023-03-10T07:00:43.227Z,16.27
2023-03-10T07:01:31.485Z,17.33
2023-03-10T07:02:03.822Z,17.47
2023-03-10T07:02:35.577Z,16.27
2023-03-10T07:03:07.407Z,16.77
2023-03-10T07:03:39.400Z,16.53
2023-03-10T07:04:12.559Z,15.97
2023-03-10T07:04:44.728Z,16.80
2023-03-10T07:05:17.298Z,15.87
2023-03-10T07:05:49.115Z,15.73
2023-03-10T07:06:22.034Z,16.83
2023-03-10T07:06:53.884Z,17.57
2023-03-10T07:07:26.139Z,19.17
2023-03-10T07:07:58.082Z,20.93
2023-03-10T07:08:30.483Z,22.27
2023-03-10T07:09:02.466Z,21.47
2023-03-10T07:09:34.322Z,19.63
2023-03-10T07:10:08.381Z,19.80
2023-03-10T07:10:40.343Z,19.57
2023-03-10T07:11:12.761Z,20.40
2023-03-10T07:11:44.491Z,19.03
2023-03-10T07:12:16.278Z,18.70
2023-03-10T07:12:54.720Z,18.37
2023-03-10T07:13:26.538Z,15.03
2023-03-10T07:13:58.576Z,16.00
2023-03-10T07:14:30.572Z,16.77